South Kearny, New Jersey
Current Conditions -  °F | °C
As of 4:17 PM on Wednesday 26 Nov 2014 (Local Time) from KEWR Reporting Station
Light Rain Light Rain  
Wind Chill: 25°   Ceiling: 1000
Heat Index: 36°   Visibility: 7mi
Dew Point: 34°   Wind: 21mph
Humidity: 93%   Direction: 10°N
Pressure: 29.8"   Gusts: NA
Location:  40.7563°N, 74.1217°W
Report Text: KEWR 262117Z 01018KT 7SM -RA SCT007 BKN010 OVC017 02/01 A2980 RMK AO2 PRESFR P0002
Loading
Personal Weather Stations






























Interactive Weather Map New forecast layout! Learn more

10-Day Weather Forecast

Advertisements
Track Severe Weather on mobile